Time;durP1;ratioP1;P1;durP2;ratioP2;P2;SDS_P1;SDS_P2;PMS_P1;PMS_P2;Temp;Humidity;BMP_temperature;BMP_pressure;BME280_temperature;BME280_humidity;BME280_pressure;Samples;Min_cycle;Max_cycle;Signal;HPM_P1;HPM_P2
2022/06/28 04:00:53;;;;;;;36.85;19.40;;;13.80;99.90;;;;;;5800303;23;20196;-72
2022/06/28 04:03:19;;;;;;;36.55;19.42;;;13.80;99.90;;;;;;5015545;28;20141;-72
2022/06/28 04:05:44;;;;;;;35.10;20.48;;;13.80;99.90;;;;;;5016948;28;20502;-72
2022/06/28 04:08:10;;;;;;;32.85;18.80;;;13.80;99.90;;;;;;5016503;28;20407;-72
2022/06/28 04:10:36;;;;;;;39.60;20.95;;;13.80;99.90;;;;;;5016623;28;20045;-72
2022/06/28 04:13:02;;;;;;;35.25;20.38;;;13.80;99.90;;;;;;5016672;28;20031;-72
2022/06/28 04:15:27;;;;;;;37.28;20.48;;;13.80;99.90;;;;;;5017866;28;20045;-74
2022/06/28 04:17:53;;;;;;;40.80;19.83;;;13.80;99.90;;;;;;5017016;28;20085;-74
2022/06/28 04:20:19;;;;;;;35.58;19.48;;;13.80;99.90;;;;;;5017600;28;20045;-75
2022/06/28 04:22:45;;;;;;;31.33;18.67;;;13.80;99.90;;;;;;5017707;28;20159;-74
2022/06/28 04:25:10;;;;;;;33.50;19.95;;;13.80;99.90;;;;;;5017652;28;20049;-73
2022/06/28 04:27:36;;;;;;;30.67;18.45;;;13.80;99.90;;;;;;5016492;28;20439;-74
2022/06/28 04:30:03;;;;;;;32.45;18.65;;;13.90;99.90;;;;;;5015553;28;20037;-74
2022/06/28 04:32:29;;;;;;;30.52;18.40;;;14.00;99.90;;;;;;5017067;28;20031;-74
2022/06/28 04:34:55;;;;;;;38.40;19.98;;;13.90;99.90;;;;;;5018105;28;20042;-74
2022/06/28 04:37:20;;;;;;;29.90;17.52;;;14.00;99.90;;;;;;5017468;28;20038;-74
2022/06/28 04:39:46;;;;;;;37.95;19.13;;;14.00;99.90;;;;;;5016686;28;20034;-74
2022/06/28 04:42:11;;;;;;;31.08;17.67;;;13.90;99.90;;;;;;5017624;28;20045;-74
2022/06/28 04:44:38;;;;;;;27.73;17.77;;;13.90;99.90;;;;;;5016240;28;20500;-74
2022/06/28 04:47:05;;;;;;;28.67;18.58;;;13.90;99.90;;;;;;5015892;28;20468;-74
2022/06/28 04:49:30;;;;;;;38.38;19.33;;;14.00;99.90;;;;;;5016831;28;20034;-74
2022/06/28 04:51:56;;;;;;;30.05;18.98;;;14.00;99.90;;;;;;5016119;28;20034;-75
2022/06/28 04:54:22;;;;;;;41.38;22.25;;;14.00;99.90;;;;;;5015688;28;20042;-74
2022/06/28 04:56:47;;;;;;;41.72;20.60;;;14.00;99.90;;;;;;5015514;28;20419;-74
2022/06/28 04:59:13;;;;;;;51.20;23.80;;;14.10;99.90;;;;;;5016500;28;20031;-74
2022/06/28 05:01:39;;;;;;;49.58;23.58;;;14.20;99.90;;;;;;5016585;28;20049;-74
2022/06/28 05:04:04;;;;;;;39.92;22.10;;;14.20;99.90;;;;;;5017815;28;20121;-74
2022/06/28 05:06:30;;;;;;;36.72;22.20;;;14.30;99.90;;;;;;5017050;28;20060;-74
2022/06/28 05:08:56;;;;;;;48.40;23.60;;;14.40;99.90;;;;;;5015733;28;20065;-75
2022/06/28 05:11:22;;;;;;;44.20;22.35;;;14.50;99.90;;;;;;5016988;28;20045;-74
2022/06/28 05:13:47;;;;;;;41.30;21.50;;;14.50;99.90;;;;;;5015864;28;20088;-74
2022/06/28 05:16:13;;;;;;;34.35;20.05;;;14.60;99.90;;;;;;5016769;28;20084;-75
2022/06/28 05:18:39;;;;;;;26.00;16.92;;;14.70;99.90;;;;;;5016910;28;20378;-74
2022/06/28 05:21:04;;;;;;;39.47;19.67;;;14.70;99.90;;;;;;5015195;28;20495;-74
2022/06/28 05:23:30;;;;;;;29.17;17.20;;;14.70;99.90;;;;;;5016666;28;20049;-75
2022/06/28 05:25:56;;;;;;;30.13;16.60;;;14.70;99.90;;;;;;5015724;28;20041;-75
2022/06/28 05:28:21;;;;;;;26.65;15.88;;;14.70;99.90;;;;;;5026461;28;20044;-74
2022/06/28 05:30:47;;;;;;;29.98;17.45;;;14.70;99.90;;;;;;5034598;28;20034;-75
2022/06/28 05:33:13;;;;;;;31.73;16.42;;;14.70;99.90;;;;;;5034074;28;20038;-75
2022/06/28 05:35:38;;;;;;;27.30;14.57;;;14.80;99.90;;;;;;5035668;28;20137;-74
2022/06/28 05:38:04;;;;;;;23.85;14.75;;;14.90;99.90;;;;;;5033981;28;20468;-74
2022/06/28 05:40:30;;;;;;;24.52;14.45;;;15.00;99.90;;;;;;5034646;28;20478;-74
2022/06/28 05:42:55;;;;;;;18.92;12.02;;;15.00;99.90;;;;;;5035854;28;20040;-74
2022/06/28 05:45:21;;;;;;;19.10;11.48;;;15.00;99.90;;;;;;5035698;28;20100;-74
2022/06/28 05:47:46;;;;;;;18.45;11.68;;;15.10;99.90;;;;;;5035344;28;20542;-74
2022/06/28 05:50:12;;;;;;;13.95;9.45;;;15.00;99.90;;;;;;5035509;28;20041;-74
2022/06/28 05:52:38;;;;;;;13.82;9.02;;;15.00;99.90;;;;;;5035657;28;20042;-74
2022/06/28 05:55:04;;;;;;;12.23;8.48;;;15.00;99.90;;;;;;5035479;28;20084;-74
2022/06/28 05:57:30;;;;;;;4.72;4.05;;;15.10;99.90;;;;;;5029166;28;20686;-74
2022/06/28 05:59:55;;;;;;;11.70;7.70;;;14.90;99.90;;;;;;4996850;28;20034;-75
2022/06/28 06:02:21;;;;;;;9.23;5.47;;;14.90;99.90;;;;;;4995663;28;20114;-74
2022/06/28 06:04:46;;;;;;;7.43;4.85;;;14.80;99.90;;;;;;4996538;28;20481;-74
2022/06/28 06:07:12;;;;;;;7.50;4.72;;;14.80;99.90;;;;;;4995938;28;20042;-75
2022/06/28 06:09:41;;;;;;;8.50;6.10;;;14.90;99.90;;;;;;4995043;28;20034;-75
2022/06/28 06:12:07;;;;;;;8.23;3.80;;;14.90;99.90;;;;;;4996224;28;20779;-74
2022/06/28 06:14:32;;;;;;;8.57;5.57;;;15.00;99.90;;;;;;4996493;28;20042;-73
2022/06/28 06:16:58;;;;;;;6.03;4.03;;;15.10;99.90;;;;;;4996314;28;20408;-73
2022/06/28 06:19:23;;;;;;;5.10;4.10;;;15.10;99.90;;;;;;4996584;28;20489;-73
2022/06/28 06:21:49;;;;;;;6.07;4.50;;;15.00;99.90;;;;;;4996222;28;20066;-73
2022/06/28 06:24:14;;;;;;;4.03;3.63;;;15.10;99.90;;;;;;4996096;28;20163;-73
2022/06/28 06:26:41;;;;;;;6.13;5.00;;;15.10;99.90;;;;;;4996447;28;20089;-73
2022/06/28 06:29:06;;;;;;;4.75;2.80;;;15.20;99.90;;;;;;5007297;28;20053;-73
2022/06/28 06:31:32;;;;;;;5.38;3.65;;;15.30;99.90;;;;;;5015484;28;20084;-74
2022/06/28 06:33:57;;;;;;;3.97;3.30;;;15.40;99.90;;;;;;5015778;28;20039;-73
2022/06/28 06:36:23;;;;;;;5.70;3.83;;;15.50;99.90;;;;;;5014498;28;20042;-73
2022/06/28 06:38:49;;;;;;;5.55;4.03;;;15.70;99.90;;;;;;5007156;28;20034;-75
2022/06/28 06:41:19;;;;;;;5.43;3.75;;;15.80;99.90;;;;;;5009659;28;20045;-74
2022/06/28 06:43:44;;;;;;;4.13;3.42;;;16.00;99.90;;;;;;5015085;28;20038;-74
2022/06/28 06:46:10;;;;;;;6.97;3.65;;;16.10;99.90;;;;;;5000148;28;20057;-75
2022/06/28 06:48:36;;;;;;;3.72;2.92;;;16.00;99.90;;;;;;4999299;28;20150;-74
2022/06/28 06:51:01;;;;;;;5.00;2.53;;;16.20;99.90;;;;;;5014791;28;20138;-74
2022/06/28 06:53:28;;;;;;;7.68;2.55;;;16.20;99.90;;;;;;5016432;28;20037;-74
2022/06/28 06:55:54;;;;;;;4.85;2.80;;;16.30;99.90;;;;;;5017277;28;20498;-75
2022/06/28 06:58:19;;;;;;;3.53;2.55;;;16.50;99.90;;;;;;4997069;28;20031;-75
2022/06/28 07:00:45;;;;;;;6.00;3.00;;;16.60;99.90;;;;;;4996117;28;20452;-76
2022/06/28 07:03:10;;;;;;;5.53;3.28;;;16.90;99.90;;;;;;5002103;28;20030;-75
2022/06/28 07:05:36;;;;;;;3.97;2.75;;;17.20;99.90;;;;;;5004493;28;20035;-75
2022/06/28 07:08:01;;;;;;;6.40;2.50;;;17.50;99.90;;;;;;5005539;28;20034;-75
2022/06/28 07:10:27;;;;;;;3.80;2.00;;;17.70;99.90;;;;;;5006201;28;20035;-75
2022/06/28 07:12:52;;;;;;;3.95;2.10;;;17.90;99.90;;;;;;5005500;28;20037;-75
2022/06/28 07:15:18;;;;;;;3.65;2.70;;;18.10;99.90;;;;;;5013054;28;20093;-75
2022/06/28 07:17:44;;;;;;;6.72;2.55;;;18.40;99.90;;;;;;5018082;28;20047;-75
2022/06/28 07:20:10;;;;;;;4.80;2.40;;;18.40;99.90;;;;;;5020114;28;20042;-75
2022/06/28 07:22:35;;;;;;;4.03;2.00;;;18.70;99.90;;;;;;5021228;28;20117;-75
2022/06/28 07:25:01;;;;;;;3.83;1.60;;;19.00;99.90;;;;;;5020298;28;20042;-75
2022/06/28 07:27:27;;;;;;;2.58;1.92;;;19.10;99.90;;;;;;5020887;28;20033;-75
2022/06/28 07:29:54;;;;;;;4.60;1.70;;;19.20;99.90;;;;;;5023102;28;20061;-75
2022/06/28 07:32:20;;;;;;;1.42;1.30;;;19.30;99.90;;;;;;5010691;28;20027;-74
2022/06/28 07:34:46;;;;;;;4.15;1.50;;;19.50;99.90;;;;;;5007626;28;20518;-74
2022/06/28 07:37:12;;;;;;;2.22;1.13;;;19.50;99.90;;;;;;5016259;28;20050;-73
2022/06/28 07:39:38;;;;;;;3.20;1.60;;;19.60;99.90;;;;;;5013738;28;20050;-74
2022/06/28 07:42:04;;;;;;;2.75;1.33;;;19.60;99.90;;;;;;5015890;28;20042;-74
2022/06/28 07:44:30;;;;;;;3.92;1.55;;;19.60;99.90;;;;;;5037430;28;20043;-74
2022/06/28 07:46:55;;;;;;;3.78;1.73;;;19.60;99.90;;;;;;5002493;28;20030;-74
2022/06/28 07:49:21;;;;;;;2.15;1.52;;;19.70;99.90;;;;;;5007299;28;20046;-74
2022/06/28 07:54:32;;;;;;;4.13;1.20;;;20.10;99.90;;;;;;5005974;28;20057;-74
2022/06/28 07:56:57;;;;;;;5.88;1.80;;;20.30;99.90;;;;;;5008613;28;20039;-75
2022/06/28 07:59:23;;;;;;;4.25;1.30;;;20.50;99.90;;;;;;5008143;28;20034;-74
2022/06/28 08:01:49;;;;;;;3.45;1.40;;;20.50;99.90;;;;;;5011830;28;20069;-74
2022/06/28 08:04:14;;;;;;;1.20;1.05;;;20.60;99.90;;;;;;5019649;28;20038;-75
2022/06/28 08:06:41;;;;;;;1.10;1.10;;;20.70;99.90;;;;;;5011444;28;20047;-75
2022/06/28 08:09:07;;;;;;;6.68;1.23;;;20.80;99.90;;;;;;5015089;28;20042;-75
2022/06/28 08:11:33;;;;;;;1.55;1.08;;;20.80;99.90;;;;;;5049887;28;20030;-75
2022/06/28 08:14:02;;;;;;;1.52;1.10;;;20.70;99.90;;;;;;5014214;28;20030;-75
2022/06/28 08:16:28;;;;;;;1.10;1.00;;;20.90;99.90;;;;;;5009129;28;20042;-76
2022/06/28 08:18:54;;;;;;;3.15;1.10;;;21.30;99.90;;;;;;5030202;28;20514;-76
2022/06/28 08:21:19;;;;;;;2.22;1.10;;;21.30;99.90;;;;;;5050121;28;20034;-77
2022/06/28 08:23:45;;;;;;;2.47;1.05;;;21.20;99.90;;;;;;5016383;28;20377;-77
2022/06/28 08:26:11;;;;;;;1.08;0.90;;;21.30;99.90;;;;;;5016533;28;20122;-77
2022/06/28 08:28:36;;;;;;;3.30;1.17;;;21.60;99.90;;;;;;5016719;28;20053;-77
2022/06/28 08:31:02;;;;;;;1.77;0.98;;;21.60;99.90;;;;;;5017049;28;20396;-77
2022/06/28 08:33:28;;;;;;;1.65;1.10;;;21.30;99.90;;;;;;5016442;28;20038;-77
2022/06/28 08:35:53;;;;;;;2.75;1.27;;;21.30;99.90;;;;;;5025318;28;20072;-77
2022/06/28 08:38:19;;;;;;;3.83;1.10;;;21.60;99.90;;;;;;5035892;28;20041;-76
2022/06/28 08:40:45;;;;;;;2.50;1.10;;;21.70;99.90;;;;;;5035758;28;20042;-77
2022/06/28 08:43:11;;;;;;;2.05;1.08;;;21.80;99.90;;;;;;5036472;28;20026;-77
2022/06/28 08:45:37;;;;;;;2.53;1.25;;;21.70;99.90;;;;;;5035136;28;20042;-77
2022/06/28 08:48:25;;;;;;;3.95;1.15;;;21.60;99.90;;;;;;5035946;28;20161;-77
2022/06/28 08:50:52;;;;;;;1.58;1.00;;;21.70;99.90;;;;;;5036202;28;20424;-74
2022/06/28 08:53:21;;;;;;;3.92;1.00;;;22.00;99.90;;;;;;5023425;28;20073;-74
2022/06/28 08:55:48;;;;;;;1.45;1.10;;;22.00;99.90;;;;;;5049884;28;20884;-74
2022/06/28 08:58:15;;;;;;;2.05;1.00;;;22.10;99.90;;;;;;5049351;28;20110;-75
2022/06/28 09:00:41;;;;;;;1.63;0.80;;;22.40;99.90;;;;;;5017117;28;20591;-74
2022/06/28 09:03:06;;;;;;;2.65;1.00;;;22.60;99.90;;;;;;5017573;28;20132;-74
2022/06/28 09:05:32;;;;;;;1.52;0.90;;;22.60;99.90;;;;;;5015485;28;20064;-75
2022/06/28 09:07:59;;;;;;;2.03;1.05;;;22.60;99.90;;;;;;5036973;28;20033;-74
2022/06/28 09:10:29;;;;;;;1.90;1.00;;;22.40;99.90;;;;;;5033682;28;20048;-74
2022/06/28 09:13:09;;;;;;;2.35;0.80;;;22.40;99.90;;;;;;5015435;28;20099;-76
2022/06/28 09:15:50;;;;;;;3.35;1.00;;;22.30;97.80;;;;;;5014904;28;20188;-74
2022/06/28 09:18:17;;;;;;;3.30;0.90;;;22.50;96.40;;;;;;5015383;28;20035;-74
2022/06/28 09:20:43;;;;;;;1.38;0.82;;;22.70;93.70;;;;;;5015585;28;20045;-75
2022/06/28 09:23:30;;;;;;;2.58;1.00;;;23.10;91.70;;;;;;5015528;28;20033;-75
2022/06/28 09:26:02;;;;;;;1.55;0.85;;;23.50;96.20;;;;;;5015428;28;20070;-74
2022/06/28 09:28:30;;;;;;;3.65;0.85;;;23.60;89.40;;;;;;5015974;28;20034;-74
2022/06/28 09:31:18;;;;;;;2.33;0.95;;;23.70;90.90;;;;;;5015635;28;20048;-74
2022/06/28 09:34:00;;;;;;;1.25;0.60;;;24.10;91.40;;;;;;5014614;28;20399;-74
2022/06/28 09:36:26;;;;;;;1.85;1.00;;;24.40;86.60;;;;;;5014646;28;20054;-74
2022/06/28 09:38:55;;;;;;;4.95;1.05;;;24.80;85.00;;;;;;5015288;28;20042;-74
2022/06/28 09:41:26;;;;;;;2.15;1.10;;;25.00;80.70;;;;;;5015169;28;20554;-74
2022/06/28 09:43:59;;;;;;;2.13;1.00;;;25.10;83.90;;;;;;5015399;28;20514;-74
2022/06/28 09:46:27;;;;;;;4.57;1.00;;;25.10;82.80;;;;;;5014610;28;20496;-74
2022/06/28 09:49:00;;;;;;;2.78;1.20;;;25.10;80.10;;;;;;5019331;28;20518;-74
2022/06/28 09:51:29;;;;;;;4.43;1.00;;;25.20;81.00;;;;;;5022171;28;20093;-74
2022/06/28 09:54:02;;;;;;;3.05;1.10;;;25.20;81.00;;;;;;5025825;28;20037;-74
2022/06/28 09:56:31;;;;;;;4.07;1.15;;;25.10;85.40;;;;;;5028531;28;20042;-76
2022/06/28 09:58:57;;;;;;;1.15;0.82;;;25.10;84.70;;;;;;5026143;28;20103;-75
2022/06/28 10:01:23;;;;;;;1.50;0.90;;;25.10;84.00;;;;;;5033621;28;20034;-75
2022/06/28 10:03:49;;;;;;;1.40;0.80;;;25.40;78.80;;;;;;5034616;28;20369;-76
2022/06/28 10:06:17;;;;;;;1.55;0.65;;;25.40;79.40;;;;;;5029607;28;20038;-77
2022/06/28 10:08:44;;;;;;;2.88;1.17;;;25.50;78.50;;;;;;5033850;28;20065;-75
2022/06/28 10:11:10;;;;;;;1.83;1.00;;;25.90;79.40;;;;;;5033217;28;20038;-75
2022/06/28 10:16:48;;;;;;;5.57;1.13;;;26.40;78.10;;;;;;5019059;28;20069;-76
2022/06/28 10:19:20;;;;;;;1.58;0.80;;;26.20;75.50;;;;;;5014941;28;20042;-75
2022/06/28 10:21:51;;;;;;;3.28;1.40;;;26.30;82.60;;;;;;5014501;28;20038;-75
2022/06/28 10:24:17;;;;;;;0.93;0.75;;;26.60;76.40;;;;;;5015076;28;20453;-75
2022/06/28 10:27:13;;;;;;;3.35;0.80;;;26.60;75.70;;;;;;5025970;28;20040;-78
2022/06/28 10:30:00;;;;;;;2.65;0.70;;;26.60;73.90;;;;;;5035140;28;20475;-73
2022/06/28 10:32:46;;;;;;;2.00;0.70;;;26.30;76.10;;;;;;5034779;28;20695;-72
2022/06/28 10:35:35;;;;;;;3.17;0.88;;;26.20;72.50;;;;;;5013719;28;20030;-71
2022/06/28 10:38:10;;;;;;;1.45;0.68;;;26.50;73.10;;;;;;5014381;28;20041;-75
2022/06/28 10:40:41;;;;;;;2.40;0.90;;;26.60;68.60;;;;;;5015633;28;20066;-76
2022/06/28 10:43:08;;;;;;;1.15;0.80;;;26.80;71.40;;;;;;5015525;28;20038;-77
2022/06/28 10:46:07;;;;;;;2.35;1.10;;;26.90;69.30;;;;;;5026681;28;20454;-76
2022/06/28 10:48:48;;;;;;;2.78;0.80;;;26.90;67.90;;;;;;5014855;28;20038;-75
2022/06/28 10:51:13;;;;;;;2.42;0.77;;;27.00;69.00;;;;;;5015730;28;20053;-76
2022/06/28 10:53:57;;;;;;;1.80;0.70;;;27.20;66.70;;;;;;5018258;28;20042;-76
2022/06/28 10:56:25;;;;;;;2.42;0.95;;;27.00;69.30;;;;;;5018075;28;20125;-76
2022/06/28 10:59:02;;;;;;;2.38;0.95;;;27.30;71.60;;;;;;5018096;28;20030;-75
2022/06/28 11:01:40;;;;;;;3.17;0.93;;;27.60;71.40;;;;;;5017552;28;20080;-76
2022/06/28 11:04:23;;;;;;;2.33;0.90;;;27.70;69.60;;;;;;5018521;28;20035;-75
2022/06/28 11:06:49;;;;;;;1.63;0.80;;;26.90;73.20;;;;;;5017803;28;20034;-76
2022/06/28 11:09:42;;;;;;;2.45;0.90;;;26.80;72.30;;;;;;5017915;28;20491;-76
2022/06/28 11:12:35;;;;;;;3.05;0.98;;;27.10;74.00;;;;;;5017892;28;20419;-75
2022/06/28 11:15:06;;;;;;;3.13;0.85;;;27.60;64.10;;;;;;5017540;28;20106;-76
2022/06/28 11:17:39;;;;;;;2.15;0.60;;;27.70;68.10;;;;;;5017439;28;20416;-77
2022/06/28 11:20:09;;;;;;;2.35;0.90;;;27.80;66.50;;;;;;5017441;28;20109;-75
2022/06/28 11:22:49;;;;;;;1.65;0.98;;;28.00;68.40;;;;;;5017348;28;20113;-75
2022/06/28 11:25:25;;;;;;;6.75;0.88;;;28.40;68.50;;;;;;5017916;28;20031;-75
2022/06/28 11:27:53;;;;;;;1.05;0.80;;;28.30;68.10;;;;;;5016953;28;20034;-75
2022/06/28 11:30:23;;;;;;;2.50;0.70;;;28.60;64.40;;;;;;5016618;28;20038;-75
2022/06/28 11:32:50;;;;;;;1.00;0.70;;;27.90;64.00;;;;;;5017209;28;20054;-75
2022/06/28 11:35:18;;;;;;;1.42;0.80;;;28.20;63.70;;;;;;5017672;28;20096;-75
2022/06/28 11:37:58;;;;;;;2.05;0.88;;;28.40;62.50;;;;;;5017097;28;20044;-75
2022/06/28 11:40:28;;;;;;;2.67;0.70;;;28.70;61.70;;;;;;5017582;28;20026;-75
2022/06/28 11:43:01;;;;;;;1.00;0.80;;;28.60;59.90;;;;;;4999383;28;20046;-74
2022/06/28 11:45:32;;;;;;;5.45;0.88;;;28.60;61.30;;;;;;5007318;28;20038;-72
2022/06/28 11:48:14;;;;;;;1.02;0.70;;;28.30;65.90;;;;;;5017698;28;20488;-72
2022/06/28 11:50:57;;;;;;;0.70;0.70;;;28.40;70.90;;;;;;5017580;28;20034;-72
2022/06/28 11:53:24;;;;;;;1.33;0.70;;;28.80;67.50;;;;;;4998129;28;20043;-72
2022/06/28 11:55:58;;;;;;;1.42;1.02;;;28.90;61.50;;;;;;5003842;28;20121;-73
2022/06/28 11:58:25;;;;;;;6.20;1.20;;;29.20;62.00;;;;;;5017308;28;20034;-73
2022/06/28 12:01:21;;;;;;;1.17;0.90;;;28.90;65.10;;;;;;5017057;28;20416;-73
2022/06/28 12:03:46;;;;;;;1.55;0.95;;;28.80;64.20;;;;;;5012782;28;20050;-73
2022/06/28 12:06:19;;;;;;;1.75;0.85;;;29.10;66.40;;;;;;5039915;28;20034;-73
2022/06/28 12:08:47;;;;;;;1.42;0.80;;;29.80;60.90;;;;;;5017125;28;20102;-73
2022/06/28 12:11:32;;;;;;;2.47;1.05;;;29.70;62.70;;;;;;5016643;28;20046;-73
2022/06/28 12:14:13;;;;;;;1.33;0.75;;;29.70;60.10;;;;;;5017176;28;20034;-73
2022/06/28 12:16:43;;;;;;;1.88;0.80;;;29.60;61.50;;;;;;5016434;28;20045;-75
2022/06/28 12:19:17;;;;;;;1.45;0.80;;;29.60;62.20;;;;;;5015716;28;20515;-75
2022/06/28 12:22:04;;;;;;;3.75;0.90;;;29.50;59.70;;;;;;5017008;28;20542;-73
2022/06/28 12:24:44;;;;;;;2.65;0.88;;;29.70;61.10;;;;;;5016761;28;20565;-72
2022/06/28 12:27:12;;;;;;;1.08;0.70;;;29.70;59.80;;;;;;5016182;28;20475;-73
2022/06/28 12:29:37;;;;;;;2.13;0.70;;;29.60;58.50;;;;;;5016460;28;20030;-74
2022/06/28 12:32:04;;;;;;;2.75;0.90;;;29.60;56.40;;;;;;5017081;28;20034;-76
2022/06/28 12:34:29;;;;;;;2.05;0.70;;;29.50;58.50;;;;;;5016793;28;20082;-76
2022/06/28 12:36:55;;;;;;;2.25;0.90;;;29.10;62.10;;;;;;5016101;28;20444;-76
2022/06/28 12:39:20;;;;;;;1.35;0.70;;;29.60;59.50;;;;;;5015559;28;20042;-75
2022/06/28 12:41:48;;;;;;;2.65;0.80;;;29.80;60.40;;;;;;5039483;28;20034;-75
2022/06/28 12:44:14;;;;;;;1.20;0.60;;;29.90;61.10;;;;;;5016686;28;20026;-76
2022/06/28 12:46:40;;;;;;;0.90;0.70;;;30.20;59.00;;;;;;5016262;28;20042;-73
2022/06/28 12:49:06;;;;;;;3.53;0.70;;;30.00;58.50;;;;;;5015249;28;20038;-74
2022/06/28 12:51:32;;;;;;;2.72;0.85;;;30.40;59.20;;;;;;5011972;28;20061;-73
2022/06/28 12:53:57;;;;;;;2.75;1.00;;;30.30;59.70;;;;;;5015940;28;20038;-74
2022/06/28 12:56:23;;;;;;;1.08;0.80;;;30.50;58.90;;;;;;4996406;28;20129;-75
2022/06/28 12:58:49;;;;;;;2.10;0.85;;;30.60;56.20;;;;;;4996345;28;20046;-75
2022/06/28 13:01:14;;;;;;;3.10;0.80;;;30.60;62.50;;;;;;4995884;28;20086;-75
2022/06/28 13:03:41;;;;;;;0.98;0.70;;;30.30;59.20;;;;;;4996534;28;20118;-75
2022/06/28 13:06:08;;;;;;;1.38;0.80;;;30.20;57.80;;;;;;4995940;28;20043;-76
2022/06/28 13:08:34;;;;;;;2.47;0.90;;;30.20;58.40;;;;;;4996439;28;20031;-75
2022/06/28 13:11:01;;;;;;;3.70;0.90;;;30.20;57.60;;;;;;4995598;28;20037;-75
2022/06/28 13:13:28;;;;;;;1.70;0.80;;;30.00;59.70;;;;;;4996493;28;20058;-75
2022/06/28 13:15:54;;;;;;;1.40;0.70;;;30.80;59.90;;;;;;4995955;28;20089;-75
2022/06/28 13:18:19;;;;;;;1.45;0.80;;;31.30;61.00;;;;;;4996406;28;20496;-75
2022/06/28 13:20:45;;;;;;;1.85;0.98;;;31.00;55.60;;;;;;4995831;28;20042;-75
2022/06/28 13:23:11;;;;;;;2.70;0.77;;;30.50;55.60;;;;;;4995943;28;20031;-75
2022/06/28 13:25:37;;;;;;;2.25;1.00;;;31.00;57.80;;;;;;4996295;28;20039;-75
2022/06/28 13:28:03;;;;;;;2.35;0.80;;;31.30;58.90;;;;;;4995896;28;20027;-75
2022/06/28 13:30:29;;;;;;;1.55;0.80;;;31.40;61.00;;;;;;4995718;28;20489;-75
2022/06/28 13:32:55;;;;;;;1.75;0.68;;;31.80;57.40;;;;;;4996117;28;20114;-75
2022/06/28 13:35:20;;;;;;;2.20;0.70;;;31.40;56.30;;;;;;4995690;28;20057;-75
2022/06/28 13:37:46;;;;;;;1.23;0.75;;;30.80;56.30;;;;;;4995745;28;20138;-75
2022/06/28 13:40:12;;;;;;;2.42;0.80;;;30.90;58.60;;;;;;4995478;28;20062;-75
2022/06/28 13:42:38;;;;;;;2.35;0.80;;;31.20;56.10;;;;;;4995742;28;20114;-75
2022/06/28 13:45:07;;;;;;;1.98;0.90;;;31.50;56.50;;;;;;4995882;28;20117;-75
2022/06/28 13:47:34;;;;;;;0.82;0.70;;;31.70;56.70;;;;;;4995425;28;20389;-76
2022/06/28 13:49:59;;;;;;;1.92;0.70;;;32.00;55.40;;;;;;4995605;28;20066;-76
2022/06/28 13:52:25;;;;;;;2.42;0.90;;;31.50;58.00;;;;;;4995621;28;20117;-76
2022/06/28 13:54:50;;;;;;;1.40;0.80;;;32.00;57.60;;;;;;4995586;28;20041;-76
2022/06/28 13:57:18;;;;;;;2.63;0.80;;;32.90;55.20;;;;;;4995539;28;20046;-76
2022/06/28 13:59:46;;;;;;;3.60;0.80;;;33.00;53.80;;;;;;4995650;28;20159;-75
2022/06/28 14:02:12;;;;;;;3.08;0.90;;;32.00;54.40;;;;;;4995309;28;20118;-76
2022/06/28 14:04:38;;;;;;;2.42;0.80;;;31.80;55.60;;;;;;4995354;28;20085;-76
2022/06/28 14:07:04;;;;;;;1.92;0.75;;;32.40;56.60;;;;;;4995443;28;20445;-76
2022/06/28 14:09:30;;;;;;;2.40;0.82;;;32.70;54.00;;;;;;4995799;28;20035;-76
2022/06/28 14:11:55;;;;;;;1.85;0.90;;;33.00;54.00;;;;;;4993712;28;20585;-76
2022/06/28 14:14:21;;;;;;;2.03;0.80;;;33.40;54.70;;;;;;4995154;28;20037;-76
2022/06/28 14:16:48;;;;;;;3.80;1.00;;;33.80;53.60;;;;;;4994812;28;20133;-76
2022/06/28 14:19:13;;;;;;;2.00;0.90;;;34.00;50.40;;;;;;4993598;28;20113;-75
2022/06/28 14:21:39;;;;;;;2.20;0.88;;;33.70;53.10;;;;;;4994172;28;20076;-76
2022/06/28 14:24:05;;;;;;;3.15;0.95;;;32.70;53.60;;;;;;4995195;28;20490;-76
2022/06/28 14:26:30;;;;;;;2.47;1.00;;;32.20;52.40;;;;;;4994958;28;20081;-76
2022/06/28 14:28:56;;;;;;;1.88;1.00;;;33.30;52.50;;;;;;4995246;28;20072;-76
2022/06/28 14:31:23;;;;;;;2.75;1.10;;;34.30;51.40;;;;;;4995001;28;20070;-76
2022/06/28 14:33:50;;;;;;;1.52;0.70;;;34.90;52.00;;;;;;4993959;28;20061;-76
2022/06/28 14:36:16;;;;;;;1.13;0.95;;;35.90;49.10;;;;;;4995233;28;20043;-76
2022/06/28 14:38:42;;;;;;;2.03;0.93;;;36.20;48.30;;;;;;4995487;28;20476;-76
2022/06/28 14:41:07;;;;;;;7.03;1.10;;;36.70;46.80;;;;;;4994833;28;20477;-75
2022/06/28 14:43:33;;;;;;;1.55;1.00;;;36.50;46.30;;;;;;4994690;28;20484;-76
2022/06/28 14:45:58;;;;;;;1.83;0.95;;;36.90;47.50;;;;;;4994809;28;20057;-75
2022/06/28 14:48:24;;;;;;;1.63;0.90;;;36.30;46.60;;;;;;4993220;28;20041;-75
2022/06/28 14:50:53;;;;;;;2.95;0.80;;;35.90;45.90;;;;;;4994738;28;20067;-76
2022/06/28 14:53:19;;;;;;;1.88;0.93;;;37.30;45.00;;;;;;4994642;28;20041;-76
2022/06/28 14:55:45;;;;;;;1.38;0.82;;;38.20;43.90;;;;;;4994551;28;20397;-76
2022/06/28 14:58:11;;;;;;;1.85;0.82;;;37.60;46.80;;;;;;4994572;28;20043;-76
2022/06/28 15:00:37;;;;;;;1.13;0.93;;;38.20;44.60;;;;;;4994760;28;20046;-76
2022/06/28 15:03:03;;;;;;;1.80;0.85;;;38.00;42.70;;;;;;4993119;28;20081;-76
2022/06/28 15:05:29;;;;;;;1.50;1.00;;;37.50;43.00;;;;;;4993188;28;20093;-76
2022/06/28 15:07:55;;;;;;;2.40;1.00;;;37.90;45.60;;;;;;4994496;28;20089;-76
2022/06/28 15:10:20;;;;;;;1.88;0.93;;;38.50;42.50;;;;;;4992706;28;20043;-76
2022/06/28 15:12:46;;;;;;;1.70;1.00;;;39.20;43.10;;;;;;4994759;28;20035;-76
2022/06/28 15:15:11;;;;;;;2.17;0.80;;;38.90;43.20;;;;;;4994568;28;20027;-76
2022/06/28 15:17:37;;;;;;;4.00;1.10;;;38.40;41.20;;;;;;4994228;28;20030;-76
2022/06/28 15:20:03;;;;;;;2.72;1.30;;;37.90;41.40;;;;;;4994413;28;20039;-76
2022/06/28 15:30:53;;;;;;;2.55;1.00;;;37.80;41.80;;;;;;4997731;28;20079;-76
2022/06/28 15:33:25;;;;;;;3.10;0.90;;;36.60;42.00;;;;;;4996210;28;20062;-75
2022/06/28 15:35:54;;;;;;;2.72;1.13;;;34.30;47.10;;;;;;4998208;28;20118;-75
2022/06/28 15:38:23;;;;;;;1.20;1.05;;;33.40;47.90;;;;;;4996025;28;20082;-75
2022/06/28 15:40:49;;;;;;;1.92;1.02;;;32.70;50.50;;;;;;4996023;28;20038;-75
2022/06/28 15:43:16;;;;;;;4.30;1.10;;;32.90;51.40;;;;;;4997718;28;20063;-75
2022/06/28 15:45:45;;;;;;;1.00;0.90;;;33.20;55.90;;;;;;4997785;28;20081;-75
2022/06/28 15:48:11;;;;;;;1.20;1.00;;;33.00;48.90;;;;;;4997236;28;20047;-75
2022/06/28 15:50:37;;;;;;;2.63;1.10;;;33.10;53.20;;;;;;4997604;28;20043;-75
2022/06/28 15:53:03;;;;;;;1.83;1.10;;;33.50;52.90;;;;;;4997295;28;20035;-75
2022/06/28 15:55:29;;;;;;;1.17;1.00;;;33.10;49.20;;;;;;4997190;28;20070;-75
2022/06/28 15:57:55;;;;;;;1.85;0.90;;;33.50;49.40;;;;;;4997220;28;20035;-75
2022/06/28 16:00:21;;;;;;;2.20;1.20;;;34.10;50.20;;;;;;4996855;28;20042;-75
2022/06/28 16:02:47;;;;;;;2.30;1.00;;;34.60;48.80;;;;;;4997559;28;20027;-75
2022/06/28 16:05:13;;;;;;;5.47;1.20;;;34.70;47.40;;;;;;4997405;28;20031;-75
2022/06/28 16:07:39;;;;;;;4.22;1.13;;;35.60;47.00;;;;;;4997292;28;20042;-75
2022/06/28 16:10:06;;;;;;;5.15;1.52;;;35.40;45.70;;;;;;4997351;28;20038;-75
2022/06/28 16:15:15;;;;;;;1.27;1.00;;;34.70;48.20;;;;;;4998193;28;20038;-76
2022/06/28 16:17:41;;;;;;;1.75;1.15;;;33.40;50.80;;;;;;4997092;28;20035;-76
2022/06/28 16:20:07;;;;;;;1.92;1.02;;;32.40;52.90;;;;;;4996969;28;20066;-76
2022/06/28 16:22:33;;;;;;;1.88;1.33;;;31.60;56.10;;;;;;4996885;28;20039;-76
2022/06/28 16:24:59;;;;;;;1.83;1.10;;;30.80;56.40;;;;;;4997123;28;20038;-76
2022/06/28 16:27:25;;;;;;;4.10;1.23;;;30.20;57.70;;;;;;4996912;28;20472;-76
2022/06/28 16:29:51;;;;;;;4.03;1.23;;;29.50;59.50;;;;;;4997142;28;20047;-76
2022/06/28 16:32:16;;;;;;;2.17;0.95;;;28.90;59.10;;;;;;4996819;28;20031;-76
2022/06/28 16:34:42;;;;;;;3.33;1.27;;;28.40;58.30;;;;;;4997409;28;20035;-75
2022/06/28 16:37:08;;;;;;;2.05;1.40;;;28.00;59.60;;;;;;4997220;28;20039;-76
2022/06/28 16:39:33;;;;;;;2.08;1.40;;;27.70;61.50;;;;;;5002660;28;20027;-77
2022/06/28 16:41:59;;;;;;;2.05;1.45;;;27.60;61.70;;;;;;4997215;28;20118;-76
2022/06/28 16:44:25;;;;;;;2.58;1.27;;;27.60;62.40;;;;;;4996916;28;20500;-75
2022/06/28 16:46:50;;;;;;;3.25;1.70;;;27.30;64.50;;;;;;4996532;28;20074;-76
2022/06/28 16:49:16;;;;;;;3.90;1.50;;;27.10;64.50;;;;;;4999620;28;20039;-78
2022/06/28 16:51:42;;;;;;;5.15;1.48;;;27.00;64.70;;;;;;4998910;28;20553;-76
2022/06/28 16:54:07;;;;;;;1.98;1.30;;;26.70;66.60;;;;;;4999029;28;20027;-77
2022/06/28 16:56:33;;;;;;;2.58;1.35;;;26.50;67.70;;;;;;4997254;28;20045;-75
2022/06/28 16:58:58;;;;;;;3.15;1.52;;;26.40;69.00;;;;;;4997127;28;20043;-75
2022/06/28 17:01:24;;;;;;;5.90;1.65;;;26.40;68.20;;;;;;4996465;28;20073;-74
2022/06/28 17:03:50;;;;;;;1.63;1.48;;;26.30;68.30;;;;;;4996919;28;20030;-75